createdAt,value
2022-08-03T00:02:19.795Z,25.40
2022-08-03T00:04:47.447Z,25.40
2022-08-03T00:07:15.083Z,25.40
2022-08-03T00:09:42.474Z,25.40
2022-08-03T00:12:10.089Z,25.30
2022-08-03T00:14:37.492Z,25.30
2022-08-03T00:17:04.698Z,25.20
2022-08-03T00:19:31.950Z,25.30
2022-08-03T00:21:59.149Z,25.20
2022-08-03T00:24:26.375Z,25.20
2022-08-03T00:26:53.669Z,25.20
2022-08-03T00:29:20.869Z,25.20
2022-08-03T00:31:52.440Z,25.10
2022-08-03T00:34:36.553Z,25.10
2022-08-03T00:37:11.892Z,25.20
2022-08-03T00:39:39.192Z,25.20
2022-08-03T00:42:06.909Z,25.10
2022-08-03T00:44:40.814Z,25.00
2022-08-03T00:47:10.246Z,25.00
2022-08-03T00:49:39.029Z,25.00
2022-08-03T00:52:11.511Z,25.00
2022-08-03T00:54:39.420Z,24.90
2022-08-03T00:57:07.909Z,24.90
2022-08-03T00:59:35.317Z,24.90
2022-08-03T01:02:02.675Z,24.90
2022-08-03T01:04:29.923Z,24.90
2022-08-03T01:07:13.675Z,24.80
2022-08-03T01:09:52.818Z,24.80
2022-08-03T01:12:37.180Z,24.70
2022-08-03T01:15:20.387Z,24.70
2022-08-03T01:17:53.859Z,24.60
2022-08-03T01:20:24.096Z,24.60
2022-08-03T01:23:03.076Z,24.60
2022-08-03T01:25:56.489Z,24.60
2022-08-03T01:28:50.248Z,24.50
2022-08-03T01:31:23.839Z,24.50
2022-08-03T01:33:57.278Z,24.40
2022-08-03T01:36:29.861Z,24.40
2022-08-03T01:39:02.058Z,24.40
2022-08-03T01:41:35.198Z,24.40
2022-08-03T01:44:29.239Z,24.40
2022-08-03T01:46:54.357Z,24.40
2022-08-03T01:49:22.426Z,24.40
2022-08-03T01:52:03.430Z,24.40
2022-08-03T01:54:37.625Z,24.30
2022-08-03T01:57:05.862Z,24.30
2022-08-03T01:59:35.568Z,24.30
2022-08-03T02:02:28.009Z,24.30
2022-08-03T02:04:55.630Z,24.30
2022-08-03T02:07:24.707Z,24.20
2022-08-03T02:09:54.149Z,24.20
2022-08-03T02:12:24.880Z,24.10
2022-08-03T02:14:52.761Z,24.10
2022-08-03T02:17:38.760Z,24.10
2022-08-03T02:20:10.838Z,24.10
2022-08-03T02:22:42.773Z,24.00
2022-08-03T02:25:12.195Z,24.00
2022-08-03T02:28:10.392Z,24.00
2022-08-03T02:30:40.939Z,24.00
2022-08-03T02:33:12.724Z,23.90
2022-08-03T02:35:41.909Z,23.90
2022-08-03T02:38:11.298Z,23.90
2022-08-03T02:40:40.567Z,23.90
2022-08-03T02:43:17.837Z,23.90
2022-08-03T02:45:48.099Z,23.80
2022-08-03T02:48:23.167Z,23.80
2022-08-03T02:50:54.725Z,23.80
2022-08-03T02:53:23.863Z,23.80
2022-08-03T02:55:52.451Z,23.80
2022-08-03T02:58:24.019Z,23.70
2022-08-03T03:00:52.134Z,23.70
2022-08-03T03:03:20.814Z,23.70
2022-08-03T03:05:51.792Z,23.70
2022-08-03T03:08:26.163Z,23.70
2022-08-03T03:10:58.359Z,23.70
2022-08-03T03:13:26.909Z,23.60
2022-08-03T03:15:56.511Z,23.60
2022-08-03T03:18:24.936Z,23.60
2022-08-03T03:20:53.905Z,23.50
2022-08-03T03:23:26.714Z,23.40
2022-08-03T03:25:56.022Z,23.40
2022-08-03T03:28:24.846Z,23.40
2022-08-03T03:30:53.295Z,23.40
2022-08-03T03:33:22.545Z,23.40
2022-08-03T03:35:51.745Z,23.30
2022-08-03T03:38:20.131Z,23.30
2022-08-03T03:40:49.118Z,23.30
2022-08-03T03:43:18.446Z,23.30
2022-08-03T03:45:47.332Z,23.30
2022-08-03T03:48:15.032Z,23.30
2022-08-03T03:50:43.774Z,23.30
2022-08-03T03:53:12.523Z,23.20
2022-08-03T03:56:02.114Z,23.30
2022-08-03T03:58:28.632Z,23.30
2022-08-03T04:00:56.053Z,23.20
2022-08-03T04:03:23.432Z,23.20
2022-08-03T04:06:09.868Z,23.20
2022-08-03T04:08:55.731Z,23.20
2022-08-03T04:11:51.663Z,23.20
2022-08-03T04:14:26.640Z,23.20
2022-08-03T04:16:58.186Z,23.20
2022-08-03T04:19:32.263Z,23.20
2022-08-03T04:22:03.043Z,23.20
2022-08-03T04:24:35.608Z,23.20
2022-08-03T04:27:06.828Z,23.20
2022-08-03T04:29:38.696Z,23.20
2022-08-03T04:32:16.846Z,23.20
2022-08-03T04:34:44.569Z,23.10
2022-08-03T04:37:14.920Z,23.10
2022-08-03T04:39:42.755Z,23.10
2022-08-03T04:42:12.729Z,23.10
2022-08-03T04:44:42.557Z,23.10
2022-08-03T04:47:09.866Z,23.10
2022-08-03T04:49:38.399Z,23.10
2022-08-03T04:52:07.961Z,23.10
2022-08-03T04:54:50.645Z,23.10
2022-08-03T04:57:22.914Z,23.00
2022-08-03T05:00:01.026Z,23.00
2022-08-03T05:02:29.378Z,23.00
2022-08-03T05:04:56.689Z,23.00
2022-08-03T05:07:24.799Z,23.00
2022-08-03T05:10:01.610Z,23.00
2022-08-03T05:12:33.129Z,23.00
2022-08-03T05:15:01.693Z,23.00
2022-08-03T05:17:29.163Z,23.00
2022-08-03T05:19:56.614Z,23.10
2022-08-03T05:22:24.300Z,23.10
2022-08-03T05:24:51.523Z,23.10
2022-08-03T05:27:21.728Z,23.10
2022-08-03T05:29:50.740Z,23.10
2022-08-03T05:32:18.950Z,23.10
2022-08-03T05:34:46.386Z,23.10
2022-08-03T05:37:13.618Z,23.20
2022-08-03T05:39:40.917Z,23.20
2022-08-03T05:42:08.145Z,23.20
2022-08-03T05:44:38.599Z,23.20
2022-08-03T05:47:06.382Z,23.30
2022-08-03T05:49:33.834Z,23.30
2022-08-03T05:52:22.415Z,23.30
2022-08-03T05:54:56.819Z,23.30
2022-08-03T05:57:27.781Z,23.30
2022-08-03T05:59:58.315Z,23.30
2022-08-03T06:02:27.138Z,23.40
2022-08-03T06:04:54.597Z,23.40
2022-08-03T06:07:22.008Z,23.40
2022-08-03T06:10:33.970Z,23.40
2022-08-03T06:12:36.784Z,23.50
2022-08-03T06:15:05.086Z,23.50
2022-08-03T06:17:37.170Z,23.50
2022-08-03T06:20:06.130Z,23.60
2022-08-03T06:22:33.594Z,23.60
2022-08-03T06:25:05.040Z,23.70
2022-08-03T06:27:38.045Z,23.70
2022-08-03T06:30:06.464Z,23.70
2022-08-03T06:32:33.776Z,23.80
2022-08-03T06:35:01.217Z,23.90
2022-08-03T06:37:28.833Z,23.90
2022-08-03T06:39:56.158Z,23.90
2022-08-03T06:42:23.388Z,23.90
2022-08-03T06:44:52.564Z,24.00
2022-08-03T06:47:19.807Z,24.00
2022-08-03T06:50:12.390Z,24.10
2022-08-03T06:52:38.156Z,24.10
2022-08-03T06:55:06.895Z,24.10
2022-08-03T06:57:34.120Z,24.20
2022-08-03T07:00:08.499Z,24.20
2022-08-03T07:02:39.720Z,24.20
2022-08-03T07:05:08.232Z,24.30
2022-08-03T07:07:36.110Z,24.30
2022-08-03T07:10:05.253Z,24.40
2022-08-03T07:12:33.840Z,24.40
2022-08-03T07:15:03.288Z,24.40
2022-08-03T07:17:35.896Z,24.50
2022-08-03T07:20:07.225Z,24.50
2022-08-03T07:22:35.264Z,24.60
2022-08-03T07:25:03.081Z,24.60
2022-08-03T07:27:30.834Z,24.70
2022-08-03T07:29:59.344Z,24.70
2022-08-03T07:32:28.373Z,24.80
2022-08-03T07:35:00.142Z,24.80
2022-08-03T07:37:29.705Z,24.90
2022-08-03T07:39:57.222Z,24.90
2022-08-03T07:42:24.533Z,25.00
2022-08-03T07:44:51.762Z,25.00
2022-08-03T07:47:35.379Z,25.10
2022-08-03T07:50:04.581Z,25.10
2022-08-03T07:52:50.330Z,25.20
2022-08-03T07:55:23.230Z,25.20
2022-08-03T07:58:09.837Z,25.30
2022-08-03T08:00:37.120Z,25.30
2022-08-03T08:03:05.119Z,25.40
2022-08-03T08:05:32.630Z,25.50
2022-08-03T08:08:01.064Z,25.50
2022-08-03T08:10:28.932Z,25.50
2022-08-03T08:12:56.732Z,25.50
2022-08-03T08:15:24.356Z,25.60
2022-08-03T08:17:54.563Z,25.70
2022-08-03T08:20:30.572Z,25.80
2022-08-03T08:23:24.859Z,25.80
2022-08-03T08:25:53.425Z,25.90
2022-08-03T08:28:32.755Z,26.00
2022-08-03T08:31:01.663Z,26.00
2022-08-03T08:33:37.615Z,26.10
2022-08-03T08:36:16.270Z,26.20
2022-08-03T08:38:44.914Z,26.20
2022-08-03T08:41:13.922Z,26.30
2022-08-03T08:43:42.237Z,26.30
2022-08-03T08:46:23.128Z,26.40
2022-08-03T08:48:53.176Z,26.40
2022-08-03T08:51:22.348Z,26.50
2022-08-03T08:53:53.909Z,26.60
2022-08-03T08:56:25.321Z,26.60
2022-08-03T08:58:56.300Z,26.70
2022-08-03T09:01:24.226Z,26.80
2022-08-03T09:03:53.372Z,26.80
2022-08-03T09:06:21.889Z,26.90
2022-08-03T09:08:49.447Z,27.00
2022-08-03T09:11:20.374Z,27.00
2022-08-03T09:14:07.667Z,27.10
2022-08-03T09:16:34.897Z,27.20
2022-08-03T09:19:16.411Z,27.30
2022-08-03T09:21:43.635Z,27.30
2022-08-03T09:24:25.700Z,27.40
2022-08-03T09:27:01.810Z,27.50
2022-08-03T09:29:32.918Z,27.60
2022-08-03T09:32:04.744Z,27.70
2022-08-03T09:34:32.573Z,27.70
2022-08-03T09:36:59.832Z,27.80
2022-08-03T09:39:41.421Z,27.90
2022-08-03T09:42:15.672Z,28.00
2022-08-03T09:44:48.197Z,28.00
2022-08-03T09:47:33.252Z,28.10
2022-08-03T09:50:05.689Z,28.10
2022-08-03T09:52:51.989Z,28.20
2022-08-03T09:56:34.728Z,28.30
2022-08-03T09:58:14.240Z,28.40
2022-08-03T10:01:06.210Z,28.50
2022-08-03T10:04:02.738Z,28.50
2022-08-03T10:06:28.777Z,28.60
2022-08-03T10:09:14.382Z,28.70
2022-08-03T10:11:43.531Z,28.70
2022-08-03T10:14:18.869Z,28.80
2022-08-03T10:16:47.391Z,28.90
2022-08-03T10:19:15.606Z,28.90
2022-08-03T10:21:59.740Z,29.00
2022-08-03T10:24:30.172Z,29.00
2022-08-03T10:27:03.530Z,29.10
2022-08-03T10:29:38.652Z,29.10
2022-08-03T10:32:43.010Z,29.20
2022-08-03T10:35:19.502Z,29.30
2022-08-03T10:38:03.903Z,29.30
2022-08-03T10:40:48.141Z,29.40
2022-08-03T10:43:26.473Z,29.40
2022-08-03T10:45:54.256Z,29.50
2022-08-03T10:48:22.396Z,29.60
2022-08-03T10:50:50.502Z,29.70
2022-08-03T10:53:35.391Z,29.70
2022-08-03T10:56:35.776Z,29.80
2022-08-03T10:59:10.542Z,29.80
2022-08-03T11:02:00.533Z,29.90
2022-08-03T11:04:29.704Z,30.00
2022-08-03T11:07:16.247Z,30.00
2022-08-03T11:09:48.466Z,30.10
2022-08-03T11:12:21.880Z,30.10
2022-08-03T11:15:00.673Z,30.20
2022-08-03T11:17:28.223Z,30.20
2022-08-03T11:19:57.596Z,30.30
2022-08-03T11:22:45.923Z,30.40
2022-08-03T11:25:53.686Z,30.50
2022-08-03T11:28:29.094Z,30.50
2022-08-03T11:31:48.794Z,30.60
2022-08-03T11:34:15.716Z,30.70
2022-08-03T11:37:22.679Z,30.80
2022-08-03T11:39:52.939Z,30.90
2022-08-03T11:42:23.374Z,31.00
2022-08-03T11:44:51.771Z,31.10
2022-08-03T11:47:21.045Z,31.20
2022-08-03T11:49:49.207Z,31.20
2022-08-03T11:52:17.660Z,31.30
2022-08-03T11:54:45.030Z,31.30
2022-08-03T11:57:12.732Z,31.30
2022-08-03T11:59:40.268Z,31.30
2022-08-03T12:02:12.518Z,31.40
2022-08-03T12:05:00.576Z,31.50
2022-08-03T12:08:02.324Z,31.50
2022-08-03T12:10:17.067Z,31.50
2022-08-03T12:12:46.730Z,31.60
2022-08-03T12:15:14.162Z,31.60
2022-08-03T12:17:41.797Z,31.70
2022-08-03T12:20:10.382Z,31.70
2022-08-03T12:22:39.870Z,31.90
2022-08-03T12:25:08.871Z,32.00
2022-08-03T12:27:36.298Z,32.10
2022-08-03T12:30:04.249Z,32.10
2022-08-03T12:32:31.660Z,32.10
2022-08-03T12:35:01.315Z,32.20
2022-08-03T12:37:29.715Z,32.20
2022-08-03T12:40:06.729Z,32.20
2022-08-03T12:42:39.852Z,32.30
2022-08-03T12:45:27.131Z,32.30
2022-08-03T12:47:57.030Z,32.40
2022-08-03T12:50:25.504Z,32.40
2022-08-03T12:52:52.809Z,32.50
2022-08-03T12:55:22.782Z,32.50
2022-08-03T12:57:50.184Z,32.60
2022-08-03T13:00:21.500Z,32.70
2022-08-03T13:05:55.672Z,32.90
2022-08-03T13:08:24.783Z,33.00
2022-08-03T13:10:53.601Z,33.10
2022-08-03T13:13:39.525Z,33.20
2022-08-03T13:16:06.769Z,33.40
2022-08-03T13:18:34.017Z,33.50
2022-08-03T13:21:02.260Z,33.60
2022-08-03T13:23:29.676Z,33.80
2022-08-03T13:25:56.941Z,33.90
2022-08-03T13:28:24.163Z,34.20
2022-08-03T13:30:51.388Z,34.40
2022-08-03T13:33:18.681Z,34.50
2022-08-03T13:35:45.979Z,34.80
2022-08-03T13:38:13.308Z,35.10
2022-08-03T13:40:42.653Z,35.50
2022-08-03T13:43:13.356Z,36.00
2022-08-03T13:45:40.607Z,36.50
2022-08-03T13:48:07.872Z,37.20
2022-08-03T13:50:37.579Z,38.00
2022-08-03T13:53:07.111Z,38.80
2022-08-03T13:55:34.362Z,38.70
2022-08-03T13:58:07.303Z,38.60
2022-08-03T14:00:34.950Z,38.60
2022-08-03T14:03:13.314Z,38.70
2022-08-03T14:05:44.711Z,38.70
2022-08-03T14:08:12.479Z,38.20
2022-08-03T14:10:42.764Z,37.80
2022-08-03T14:13:12.080Z,37.80
2022-08-03T14:15:39.446Z,37.90
2022-08-03T14:18:15.616Z,38.10
2022-08-03T14:20:49.040Z,38.40
2022-08-03T14:23:18.966Z,38.80
2022-08-03T14:25:51.555Z,39.10
2022-08-03T14:28:24.325Z,39.40
2022-08-03T14:30:52.660Z,39.70
2022-08-03T14:33:20.391Z,39.90
2022-08-03T14:35:48.169Z,40.10
2022-08-03T14:38:15.655Z,40.40
2022-08-03T14:40:43.332Z,40.50
2022-08-03T14:43:11.098Z,40.60
2022-08-03T14:45:39.341Z,40.90
2022-08-03T14:50:28.636Z,41.10
2022-08-03T14:50:55.300Z,41.30
2022-08-03T14:53:23.215Z,41.70
2022-08-03T14:55:52.736Z,42.00
2022-08-03T14:58:22.700Z,42.40
2022-08-03T15:00:51.751Z,42.50
2022-08-03T15:03:23.323Z,42.80
2022-08-03T15:05:52.886Z,43.10
2022-08-03T15:08:20.771Z,43.20
2022-08-03T15:10:49.315Z,43.30
2022-08-03T15:13:17.762Z,43.50
2022-08-03T15:15:45.366Z,43.80
2022-08-03T15:18:12.643Z,44.10
2022-08-03T15:20:44.897Z,44.30
2022-08-03T15:23:15.157Z,44.30
2022-08-03T15:26:31.751Z,44.30
2022-08-03T15:28:31.912Z,44.40
2022-08-03T15:30:59.462Z,44.60
2022-08-03T15:33:26.825Z,44.50
2022-08-03T15:35:54.450Z,44.40
2022-08-03T15:38:26.102Z,44.40
2022-08-03T15:40:54.995Z,44.00
2022-08-03T15:43:23.189Z,43.90
2022-08-03T15:46:06.841Z,43.80
2022-08-03T15:48:38.454Z,43.70
2022-08-03T15:51:06.240Z,43.70
2022-08-03T15:53:33.744Z,43.90
2022-08-03T15:56:03.308Z,44.20
2022-08-03T15:59:10.194Z,44.40
2022-08-03T16:01:21.444Z,44.40
2022-08-03T16:03:48.914Z,44.30
2022-08-03T16:06:16.174Z,44.00
2022-08-03T16:08:43.463Z,43.70
2022-08-03T16:11:11.372Z,43.30
2022-08-03T16:14:11.960Z,43.00
2022-08-03T16:16:26.202Z,42.70
2022-08-03T16:18:53.449Z,42.40
2022-08-03T16:21:21.818Z,42.40
2022-08-03T16:23:51.870Z,42.60
2022-08-03T16:26:19.574Z,42.70
2022-08-03T16:28:46.816Z,42.90
2022-08-03T16:31:14.182Z,42.90
2022-08-03T16:33:41.413Z,42.60
2022-08-03T16:36:08.660Z,42.10
2022-08-03T16:38:36.651Z,41.70
2022-08-03T16:41:04.696Z,41.30
2022-08-03T16:43:34.645Z,40.80
2022-08-03T16:46:02.004Z,40.40
2022-08-03T16:48:29.321Z,39.90
2022-08-03T16:50:56.589Z,39.30
2022-08-03T16:53:33.152Z,39.00
2022-08-03T16:56:11.222Z,38.60
2022-08-03T16:58:42.083Z,38.40
2022-08-03T17:01:24.166Z,38.10
2022-08-03T17:04:01.393Z,37.90
2022-08-03T17:06:36.342Z,37.60
2022-08-03T17:09:18.867Z,37.30
2022-08-03T17:11:49.959Z,37.10
2022-08-03T17:14:22.873Z,36.90
2022-08-03T17:17:01.783Z,36.70
2022-08-03T17:19:30.813Z,36.50
2022-08-03T17:22:08.772Z,36.30
2022-08-03T17:24:40.944Z,36.10
2022-08-03T17:28:41.834Z,36.00
2022-08-03T17:30:08.755Z,35.80
2022-08-03T17:32:42.784Z,35.60
2022-08-03T17:35:21.059Z,35.50
2022-08-03T17:37:58.263Z,35.30
2022-08-03T17:40:31.579Z,35.20
2022-08-03T17:43:00.671Z,35.00
2022-08-03T17:45:52.190Z,34.80
2022-08-03T17:48:18.746Z,34.70
2022-08-03T17:51:07.590Z,34.50
2022-08-03T17:54:20.434Z,34.40
2022-08-03T17:56:56.486Z,34.30
2022-08-03T17:59:50.911Z,34.10
2022-08-03T18:02:47.442Z,34.00
2022-08-03T18:05:21.954Z,33.80
2022-08-03T18:08:02.365Z,33.70
2022-08-03T18:10:35.318Z,33.60
2022-08-03T18:13:24.540Z,33.50
2022-08-03T18:16:05.834Z,33.40
2022-08-03T18:18:56.892Z,33.30
2022-08-03T18:21:28.136Z,33.20
2022-08-03T18:24:18.555Z,33.10
2022-08-03T18:26:48.419Z,33.00
2022-08-03T18:29:15.914Z,32.90
2022-08-03T18:32:03.107Z,32.90
2022-08-03T18:34:34.538Z,32.80
2022-08-03T18:37:07.468Z,32.70
2022-08-03T18:39:49.501Z,32.60
2022-08-03T18:42:19.749Z,32.60
2022-08-03T18:44:54.048Z,32.40
2022-08-03T18:47:51.587Z,32.40
2022-08-03T18:50:39.683Z,32.30
2022-08-03T18:54:03.622Z,32.10
2022-08-03T18:56:43.179Z,32.10
2022-08-03T18:59:30.262Z,31.90
2022-08-03T19:02:14.372Z,31.80
2022-08-03T19:04:53.281Z,31.70
2022-08-03T19:07:26.529Z,31.70
2022-08-03T19:09:59.808Z,31.60
2022-08-03T19:12:51.586Z,31.60
2022-08-03T19:15:21.192Z,31.50
2022-08-03T19:18:10.457Z,31.50
2022-08-03T19:20:38.207Z,31.40
2022-08-03T19:23:06.680Z,31.30
2022-08-03T19:25:39.242Z,31.20
2022-08-03T19:28:08.647Z,31.10
2022-08-03T19:30:38.827Z,31.10
2022-08-03T19:33:15.186Z,31.00
2022-08-03T19:35:55.321Z,31.00
2022-08-03T19:38:28.360Z,30.90
2022-08-03T19:40:58.457Z,30.90
2022-08-03T19:43:49.452Z,30.80
2022-08-03T19:46:31.387Z,30.80
2022-08-03T19:49:14.999Z,30.70
2022-08-03T19:52:02.538Z,30.70
2022-08-03T19:54:39.661Z,30.60
2022-08-03T19:57:27.047Z,30.60
2022-08-03T19:59:56.406Z,30.60
2022-08-03T20:02:25.571Z,30.50
2022-08-03T20:04:53.215Z,30.50
2022-08-03T20:07:22.705Z,30.40
2022-08-03T20:09:54.432Z,30.30
2022-08-03T20:12:26.455Z,30.20
2022-08-03T20:14:57.283Z,30.20
2022-08-03T20:17:54.071Z,30.10
2022-08-03T20:20:13.468Z,30.00
2022-08-03T20:22:48.155Z,30.00
2022-08-03T20:25:21.117Z,29.90
2022-08-03T20:28:07.333Z,29.90
2022-08-03T20:30:43.349Z,29.90
2022-08-03T20:33:11.279Z,29.80
2022-08-03T20:35:38.521Z,29.80
2022-08-03T20:38:09.292Z,29.70
2022-08-03T20:40:38.162Z,29.70
2022-08-03T20:43:09.247Z,29.60
2022-08-03T20:45:59.551Z,29.60
2022-08-03T20:48:26.779Z,29.50
2022-08-03T20:50:55.361Z,29.40
2022-08-03T20:53:57.144Z,29.40
2022-08-03T20:56:10.187Z,29.40
2022-08-03T20:58:41.546Z,29.40
2022-08-03T21:01:09.181Z,29.30
2022-08-03T21:03:40.928Z,29.30
2022-08-03T21:06:27.365Z,29.20
2022-08-03T21:09:05.135Z,29.20
2022-08-03T21:11:43.338Z,29.10
2022-08-03T21:14:24.044Z,29.10
2022-08-03T21:16:52.900Z,29.10
2022-08-03T21:19:21.638Z,29.10
2022-08-03T21:21:50.159Z,29.00
2022-08-03T21:24:19.589Z,29.00
2022-08-03T21:26:48.979Z,29.00
2022-08-03T21:29:16.824Z,29.00
2022-08-03T21:31:44.368Z,28.90
2022-08-03T21:34:11.624Z,28.80
2022-08-03T21:36:38.951Z,28.80
2022-08-03T21:39:08.910Z,28.80
2022-08-03T21:41:38.257Z,28.80
2022-08-03T21:44:06.440Z,28.70
2022-08-03T21:46:39.759Z,28.70
2022-08-03T21:50:06.776Z,28.70
2022-08-03T21:52:03.969Z,28.70
2022-08-03T21:54:40.787Z,28.60
2022-08-03T21:57:34.866Z,28.60
2022-08-03T22:00:17.242Z,28.60
2022-08-03T22:02:53.017Z,28.50
2022-08-03T22:05:29.183Z,28.40
2022-08-03T22:08:12.661Z,28.50
2022-08-03T22:10:40.439Z,28.40
2022-08-03T22:13:07.772Z,28.40
2022-08-03T22:15:35.259Z,28.40
2022-08-03T22:18:03.646Z,28.30
2022-08-03T22:20:31.321Z,28.30
2022-08-03T22:23:02.734Z,28.20
2022-08-03T22:25:35.775Z,28.20
2022-08-03T22:28:07.287Z,28.10
2022-08-03T22:30:35.459Z,28.10
2022-08-03T22:33:05.529Z,28.10
2022-08-03T22:35:49.238Z,28.10
2022-08-03T22:38:19.459Z,28.10
2022-08-03T22:40:48.951Z,28.00
2022-08-03T22:43:16.807Z,28.00
2022-08-03T22:46:10.405Z,28.00
2022-08-03T22:48:41.201Z,28.00
2022-08-03T22:51:09.878Z,27.90
2022-08-03T22:53:38.924Z,27.90
2022-08-03T22:56:06.982Z,27.80
2022-08-03T22:58:34.235Z,27.80
2022-08-03T23:01:08.574Z,27.80
2022-08-03T23:04:00.805Z,27.70
2022-08-03T23:06:36.908Z,27.70
2022-08-03T23:09:10.267Z,27.70
2022-08-03T23:11:45.607Z,27.60
2022-08-03T23:14:16.049Z,27.60
2022-08-03T23:16:44.411Z,27.60
2022-08-03T23:19:17.170Z,27.50
2022-08-03T23:22:02.226Z,27.50
2022-08-03T23:24:35.642Z,27.50
2022-08-03T23:27:07.555Z,27.50
2022-08-03T23:29:36.711Z,27.40
2022-08-03T23:32:05.587Z,27.40
2022-08-03T23:34:52.166Z,27.40
2022-08-03T23:37:22.543Z,27.40
2022-08-03T23:39:50.020Z,27.30
2022-08-03T23:42:19.489Z,27.30
2022-08-03T23:44:47.132Z,27.30
2022-08-03T23:47:14.372Z,27.30
2022-08-03T23:49:41.658Z,27.30
2022-08-03T23:52:33.287Z,27.30
2022-08-03T23:55:16.525Z,27.20
2022-08-03T23:57:52.152Z,27.20
